Terminal Aerodrome Forecast
Issued by NWS Chicago, IL

Home | Current Version | Previous Version | Graphics & Text | Print | Product List | Glossary On
Versions: 1 2 3 4 5 6 7 8 9 10 11 12 13 14 15 16 17 18 19 20 21 22 23 24 25 26 27 28 29 30 31 32
000
FTUS43 KLOT 181500 AAC
TAFRFD
TAF AMD
KRFD 181558Z 1816/1912 07007KT 5SM BR OVC006
     FM181730 07008KT P6SM BKN015
     FM181900 07009KT P6SM BKN025
     FM190600 12005KT P6SM SKC=

USA.gov is the U.S. government's official web portal to all federal, state and local government web resources and services.